createdAt,value
2019-05-01T00:00:50.740Z,13.49
2019-05-01T00:05:56.554Z,13.50
2019-05-01T00:10:58.635Z,13.45
2019-05-01T00:16:00.770Z,13.46
2019-05-01T00:21:02.852Z,13.48
2019-05-01T00:26:05.103Z,13.47
2019-05-01T00:31:07.422Z,13.47
2019-05-01T00:36:09.507Z,13.50
2019-05-01T00:41:11.589Z,13.53
2019-05-01T00:46:13.726Z,13.62
2019-05-01T00:51:15.860Z,13.70
2019-05-01T00:56:40.124Z,13.78
2019-05-01T01:02:00.308Z,13.88
2019-05-01T01:07:02.500Z,13.97
2019-05-01T01:12:04.559Z,14.04
2019-05-01T01:17:06.593Z,14.11
2019-05-01T01:22:08.642Z,14.17
2019-05-01T01:27:11.010Z,14.22
2019-05-01T01:32:13.193Z,14.29
2019-05-01T01:37:15.239Z,14.34
2019-05-01T01:42:17.997Z,14.40
2019-05-01T01:47:20.071Z,14.45
2019-05-01T01:52:22.676Z,14.50
2019-05-01T01:57:25.058Z,14.51
2019-05-01T02:02:35.935Z,14.61
2019-05-01T02:07:38.190Z,14.70
2019-05-01T02:12:40.622Z,14.82
2019-05-01T02:17:42.664Z,14.95
2019-05-01T02:22:44.750Z,15.04
2019-05-01T02:28:12.122Z,15.05
2019-05-01T02:33:27.660Z,15.14
2019-05-01T02:38:31.400Z,15.22
2019-05-01T02:43:37.217Z,15.29
2019-05-01T02:48:43.956Z,15.34
2019-05-01T02:53:47.736Z,15.36
2019-05-01T02:58:53.526Z,15.41
2019-05-01T03:03:56.936Z,15.40
2019-05-01T03:09:00.552Z,15.40
2019-05-01T03:14:03.489Z,15.46
2019-05-01T03:19:10.059Z,15.46
2019-05-01T03:24:16.950Z,15.45
2019-05-01T03:29:19.829Z,15.45
2019-05-01T03:34:22.189Z,15.44
2019-05-01T03:39:24.218Z,15.46
2019-05-01T03:44:26.442Z,15.47
2019-05-01T03:49:28.855Z,15.47
2019-05-01T03:54:32.152Z,15.46
2019-05-01T03:59:34.696Z,15.47
2019-05-01T04:04:37.085Z,15.42
2019-05-01T04:09:40.287Z,15.36
2019-05-01T04:14:42.631Z,15.33
2019-05-01T04:19:45.071Z,15.32
2019-05-01T04:24:48.085Z,15.29
2019-05-01T04:30:02.342Z,15.27
2019-05-01T04:35:19.366Z,15.24
2019-05-01T04:40:21.597Z,15.19
2019-05-01T04:45:24.358Z,15.18
2019-05-01T04:50:26.992Z,15.20
2019-05-01T04:55:30.491Z,15.22
2019-05-01T05:00:33.249Z,15.23
2019-05-01T05:05:35.500Z,15.22
2019-05-01T05:10:39.620Z,15.21
2019-05-01T05:15:50.781Z,15.21
2019-05-01T05:20:52.907Z,15.23
2019-05-01T05:25:55.326Z,15.37
2019-05-01T05:30:58.168Z,15.54
2019-05-01T05:36:02.727Z,15.60
2019-05-01T05:41:05.575Z,15.67
2019-05-01T05:46:07.867Z,15.74
2019-05-01T05:51:19.622Z,15.81
2019-05-01T05:56:49.080Z,15.83
2019-05-01T06:02:10.222Z,15.92
2019-05-01T06:07:32.452Z,16.08
2019-05-01T06:12:46.893Z,16.38
2019-05-01T06:18:22.658Z,17.56
2019-05-01T06:23:41.928Z,18.19
2019-05-01T06:28:44.063Z,19.16
2019-05-01T06:33:48.673Z,18.81
2019-05-01T06:38:50.394Z,18.88
2019-05-01T06:44:04.049Z,19.53
2019-05-01T06:49:30.970Z,19.76
2019-05-01T06:54:35.188Z,20.04
2019-05-01T06:59:38.830Z,20.22
2019-05-01T07:04:42.943Z,19.80
2019-05-01T07:09:49.227Z,19.68
2019-05-01T07:14:52.118Z,19.53
2019-05-01T07:20:19.064Z,19.62
2019-05-01T07:25:21.247Z,19.79
2019-05-01T07:30:49.803Z,20.07
2019-05-01T07:35:54.032Z,20.31
2019-05-01T07:40:58.851Z,20.62
2019-05-01T07:46:21.429Z,20.52
2019-05-01T07:51:23.716Z,20.75
2019-05-01T07:56:28.245Z,21.15
2019-05-01T08:01:49.910Z,21.53
2019-05-01T08:06:51.997Z,21.33
2019-05-01T08:11:53.987Z,20.98
2019-05-01T08:16:56.096Z,20.47
2019-05-01T08:22:13.635Z,20.14
2019-05-01T08:27:28.624Z,19.87
2019-05-01T08:32:42.106Z,19.76
2019-05-01T08:37:44.276Z,19.54
2019-05-01T08:42:46.867Z,19.68
2019-05-01T08:48:01.523Z,19.71
2019-05-01T08:53:04.149Z,19.87
2019-05-01T08:58:08.806Z,20.34
2019-05-01T09:03:13.547Z,20.69
2019-05-01T09:08:15.226Z,20.84
2019-05-01T09:13:18.950Z,20.96
2019-05-01T09:18:21.245Z,20.86
2019-05-01T09:23:23.399Z,20.70
2019-05-01T09:28:29.819Z,20.84
2019-05-01T09:33:32.125Z,20.93
2019-05-01T09:38:34.367Z,21.04
2019-05-01T09:43:37.082Z,21.29
2019-05-01T09:48:39.634Z,21.51
2019-05-01T09:53:55.884Z,21.59
2019-05-01T09:58:57.981Z,21.45
2019-05-01T10:04:00.226Z,21.61
2019-05-01T10:09:04.882Z,21.70
2019-05-01T10:14:06.976Z,21.78
2019-05-01T10:19:09.018Z,21.91
2019-05-01T10:24:11.077Z,21.98
2019-05-01T10:29:35.786Z,22.25
2019-05-01T10:34:51.110Z,22.30
2019-05-01T10:39:54.100Z,22.31
2019-05-01T10:44:57.536Z,22.32
2019-05-01T10:49:59.621Z,22.27
2019-05-01T10:55:03.754Z,22.50
2019-05-01T11:00:06.321Z,22.78
2019-05-01T11:05:08.941Z,22.87
2019-05-01T11:10:11.117Z,22.95
2019-05-01T11:15:14.497Z,23.18
2019-05-01T11:20:16.558Z,23.07
2019-05-01T11:25:20.185Z,23.26
2019-05-01T11:30:22.591Z,23.26
2019-05-01T11:35:41.994Z,23.33
2019-05-01T11:40:48.639Z,23.33
2019-05-01T11:45:51.347Z,23.43
2019-05-01T11:50:55.392Z,23.51
2019-05-01T11:55:57.473Z,23.48
2019-05-01T12:01:01.334Z,23.57
2019-05-01T12:06:03.410Z,23.45
2019-05-01T12:11:08.256Z,23.38
2019-05-01T12:16:17.637Z,23.40
2019-05-01T12:21:19.708Z,23.22
2019-05-01T12:26:21.800Z,23.00
2019-05-01T12:31:23.857Z,22.87
2019-05-01T12:36:36.133Z,22.86
2019-05-01T12:41:35.634Z,22.94
2019-05-01T12:46:44.170Z,23.07
2019-05-01T12:51:48.170Z,23.02
2019-05-01T12:56:53.803Z,22.87
2019-05-01T13:01:55.875Z,22.79
2019-05-01T13:06:59.133Z,22.55
2019-05-01T13:12:01.228Z,22.55
2019-05-01T13:17:03.241Z,22.58
2019-05-01T13:22:05.468Z,22.57
2019-05-01T13:27:13.714Z,22.51
2019-05-01T13:32:38.341Z,22.53
2019-05-01T13:37:40.508Z,22.42
2019-05-01T13:42:42.574Z,22.31
2019-05-01T13:47:44.931Z,22.33
2019-05-01T13:52:47.176Z,22.19
2019-05-01T13:57:49.219Z,22.19
2019-05-01T14:02:51.299Z,22.21
2019-05-01T14:07:53.424Z,22.19
2019-05-01T14:12:55.489Z,22.15
2019-05-01T14:17:57.582Z,22.06
2019-05-01T14:23:14.775Z,22.07
2019-05-01T14:28:16.902Z,22.04
2019-05-01T14:33:18.963Z,21.98
2019-05-01T14:38:21.028Z,21.99
2019-05-01T14:43:23.155Z,21.98
2019-05-01T14:48:25.486Z,21.97
2019-05-01T14:53:27.627Z,21.88
2019-05-01T14:58:29.698Z,21.89
2019-05-01T15:03:31.887Z,21.81
2019-05-01T15:08:33.975Z,21.78
2019-05-01T15:13:48.748Z,21.68
2019-05-01T15:19:02.751Z,21.62
2019-05-01T15:24:04.809Z,21.58
2019-05-01T15:29:06.864Z,21.61
2019-05-01T15:34:08.932Z,21.53
2019-05-01T15:39:17.409Z,21.51
2019-05-01T15:44:32.120Z,21.53
2019-05-01T15:49:34.252Z,21.42
2019-05-01T15:54:36.339Z,21.36
2019-05-01T15:59:38.523Z,21.27
2019-05-01T16:04:40.748Z,21.28
2019-05-01T16:09:42.791Z,21.22
2019-05-01T16:14:48.994Z,21.16
2019-05-01T16:19:51.123Z,21.14
2019-05-01T16:24:53.233Z,21.10
2019-05-01T16:29:55.284Z,21.14
2019-05-01T16:34:57.362Z,21.13
2019-05-01T16:40:09.002Z,20.98
2019-05-01T16:45:11.867Z,20.98
2019-05-01T16:50:14.301Z,20.97
2019-05-01T16:55:17.043Z,20.96
2019-05-01T17:00:26.379Z,20.91
2019-05-01T17:05:46.391Z,20.90
2019-05-01T17:10:49.275Z,20.78
2019-05-01T17:15:51.316Z,20.67
2019-05-01T17:20:53.431Z,20.58
2019-05-01T17:25:55.515Z,20.47
2019-05-01T17:31:00.250Z,20.38
2019-05-01T17:36:02.362Z,20.33
2019-05-01T17:41:04.617Z,20.23
2019-05-01T17:46:10.882Z,20.17
2019-05-01T17:51:10.798Z,20.11
2019-05-01T17:56:15.356Z,19.98
2019-05-01T18:01:37.437Z,19.89
2019-05-01T18:06:46.568Z,19.82
2019-05-01T18:11:47.432Z,19.70
2019-05-01T18:16:50.430Z,19.63
2019-05-01T18:22:02.290Z,19.55
2019-05-01T18:27:19.148Z,19.46
2019-05-01T18:32:27.582Z,19.36
2019-05-01T18:37:36.359Z,19.30
2019-05-01T18:42:38.558Z,19.23
2019-05-01T18:47:40.632Z,19.18
2019-05-01T18:52:42.667Z,19.15
2019-05-01T18:57:44.792Z,19.08
2019-05-01T19:02:46.902Z,18.98
2019-05-01T19:07:49.138Z,18.95
2019-05-01T19:12:51.238Z,18.86
2019-05-01T19:17:53.388Z,18.77
2019-05-01T19:22:55.455Z,18.67
2019-05-01T19:27:57.574Z,18.55
2019-05-01T19:32:59.643Z,18.48
2019-05-01T19:38:01.859Z,18.39
2019-05-01T19:43:04.102Z,18.33
2019-05-01T19:48:06.509Z,18.25
2019-05-01T19:53:10.158Z,18.16
2019-05-01T19:58:12.566Z,18.07
2019-05-01T20:03:14.985Z,18.01
2019-05-01T20:08:17.072Z,17.95
2019-05-01T20:13:19.171Z,17.87
2019-05-01T20:18:21.268Z,17.80
2019-05-01T20:23:26.262Z,17.74
2019-05-01T20:28:28.430Z,17.70
2019-05-01T20:33:33.424Z,17.64
2019-05-01T20:38:34.559Z,17.57
2019-05-01T20:43:38.159Z,17.49
2019-05-01T20:48:40.653Z,17.42
2019-05-01T20:53:42.797Z,17.40
2019-05-01T20:58:45.116Z,17.36
2019-05-01T21:03:57.291Z,17.30
2019-05-01T21:09:15.856Z,17.29
2019-05-01T21:14:22.750Z,17.24
2019-05-01T21:19:23.357Z,17.17
2019-05-01T21:24:26.042Z,17.13
2019-05-01T21:29:28.204Z,17.07
2019-05-01T21:34:30.289Z,17.00
2019-05-01T21:39:33.482Z,16.93
2019-05-01T21:44:35.563Z,16.86
2019-05-01T21:49:37.625Z,16.81
2019-05-01T21:54:39.762Z,16.74
2019-05-01T21:59:44.691Z,16.70
2019-05-01T22:04:45.855Z,16.70
2019-05-01T22:09:50.571Z,16.72
2019-05-01T22:14:58.549Z,16.76
2019-05-01T22:20:00.857Z,16.80
2019-05-01T22:25:29.521Z,16.83
2019-05-01T22:30:42.239Z,16.84
2019-05-01T22:35:45.994Z,16.85
2019-05-01T22:41:22.869Z,16.81
2019-05-01T22:46:28.622Z,16.84
2019-05-01T22:51:30.712Z,16.81
2019-05-01T22:56:32.789Z,16.83
2019-05-01T23:01:35.176Z,16.82
2019-05-01T23:06:41.862Z,16.79
2019-05-01T23:11:45.194Z,16.67
2019-05-01T23:16:58.663Z,16.60
2019-05-01T23:21:59.352Z,16.49
2019-05-01T23:27:01.435Z,16.39
2019-05-01T23:32:04.701Z,16.35
2019-05-01T23:37:06.817Z,16.27
2019-05-01T23:42:08.911Z,16.18
2019-05-01T23:47:10.982Z,16.10
2019-05-01T23:52:13.217Z,16.05
2019-05-01T23:57:18.800Z,15.95
